Time;durP1;ratioP1;P1;durP2;ratioP2;P2;SDS_P1;SDS_P2;PMS_P1;PMS_P2;Temp;Humidity;BMP_temperature;BMP_pressure;BME280_temperature;BME280_humidity;BME280_pressure;Samples;Min_cycle;Max_cycle;Signal;HPM_P1;HPM_P2
2022/01/19 00:00:16;;;;;;;;;;;;;;;18.39;42.63;101447.78;2084374;28;19917;-38
2022/01/19 00:01:17;;;;;;;;;;;;;;;18.38;42.74;101443.34;2078340;28;19916;-38
2022/01/19 00:02:18;;;;;;;;;;;;;;;18.39;42.80;101436.00;2082234;28;19912;-38
2022/01/19 00:03:18;;;;;;;;;;;;;;;18.39;42.57;101441.47;2079667;28;19911;-38
2022/01/19 00:04:18;;;;;;;;;;;;;;;18.39;42.60;101439.59;2084149;28;19931;-38
2022/01/19 00:05:19;;;;;;;;;;;;;;;18.39;42.75;101434.16;2084389;28;20169;-38
2022/01/19 00:06:19;;;;;;;;;;;;;;;18.42;42.61;101441.25;2084852;28;20333;-38
2022/01/19 00:07:19;;;;;;;;;;;;;;;18.42;42.50;101435.78;2085126;28;19963;-38
2022/01/19 00:08:21;;;;;;;;;;;;;;;18.41;42.48;101432.19;2081684;28;19913;-38
2022/01/19 00:09:23;;;;;;;;;;;;;;;18.41;42.55;101434.91;2082091;28;19916;-38
2022/01/19 00:10:28;;;;;;;;;;;;;;;18.41;42.69;101434.91;2085654;28;20011;-38
2022/01/19 00:11:28;;;;;;;;;;;;;;;18.41;42.73;101426.72;2082720;28;19916;-38
2022/01/19 00:12:28;;;;;;;;;;;;;;;18.41;42.61;101420.41;2085048;28;20494;-38
2022/01/19 00:13:29;;;;;;;;;;;;;;;18.39;42.73;101423.22;2081858;28;19916;-38
2022/01/19 00:14:30;;;;;;;;;;;;;;;18.39;42.57;101430.56;2082714;28;19919;-38
2022/01/19 00:15:30;;;;;;;;;;;;;;;18.37;42.72;101427.97;2085008;28;20192;-38
2022/01/19 00:16:30;;;;;;;;;;;;;;;18.36;42.83;101437.13;2080938;28;19924;-38
2022/01/19 00:17:31;;;;;;;;;;;;;;;18.33;42.78;101448.25;2083215;28;19931;-38
2022/01/19 00:18:31;;;;;;;;;;;;;;;18.33;42.61;101448.25;2083865;28;19916;-38
2022/01/19 00:19:31;;;;;;;;;;;;;;;18.33;42.79;101453.72;2082784;28;19927;-38
2022/01/19 00:20:33;;;;;;;;;;;;;;;18.33;42.95;101459.19;2078128;28;19932;-38
2022/01/19 00:21:34;;;;;;;;;;;;;;;18.32;42.71;101460.16;2080926;28;19912;-41
2022/01/19 00:22:34;;;;;;;;;;;;;;;18.32;42.96;101462.88;2084818;28;19951;-38
2022/01/19 00:23:35;;;;;;;;;;;;;;;18.31;42.79;101466.59;2083307;28;19916;-38
2022/01/19 00:24:35;;;;;;;;;;;;;;;18.33;42.83;101469.25;2083499;28;20389;-38
2022/01/19 00:25:36;;;;;;;;;;;;;;;18.33;42.87;101467.38;2086994;28;19908;-38
2022/01/19 00:26:37;;;;;;;;;;;;;;;18.33;42.68;101470.09;2091688;28;19916;-38
2022/01/19 00:27:38;;;;;;;;;;;;;;;18.34;42.85;101470.97;2083755;28;20343;-38
2022/01/19 00:28:38;;;;;;;;;;;;;;;18.33;42.89;101475.56;2078133;28;19913;-38
2022/01/19 00:29:39;;;;;;;;;;;;;;;18.34;42.78;101471.84;2084534;28;19912;-38
2022/01/19 00:30:40;;;;;;;;;;;;;;;18.33;42.78;101472.84;2084350;28;19939;-38
2022/01/19 00:31:40;;;;;;;;;;;;;;;18.33;42.83;101478.28;2084412;28;19946;-38
2022/01/19 00:32:40;;;;;;;;;;;;;;;18.33;42.76;101480.16;2083665;28;19921;-38
2022/01/19 00:33:41;;;;;;;;;;;;;;;18.33;42.96;101475.56;2085254;28;19916;-38
2022/01/19 00:34:41;;;;;;;;;;;;;;;18.33;42.89;101482.88;2083941;28;20007;-38
2022/01/19 00:35:41;;;;;;;;;;;;;;;18.32;42.83;101478.41;2084610;28;20300;-38
2022/01/19 00:36:42;;;;;;;;;;;;;;;18.32;42.93;101482.00;2084251;28;20855;-38
2022/01/19 00:37:42;;;;;;;;;;;;;;;18.30;42.98;101478.53;2079621;28;20406;-38
2022/01/19 00:38:43;;;;;;;;;;;;;;;18.28;42.88;101466.84;2083583;28;19961;-38
2022/01/19 00:39:43;;;;;;;;;;;;;;;18.27;42.96;101466.94;2084123;28;20087;-38
2022/01/19 00:40:44;;;;;;;;;;;;;;;18.25;43.08;101469.81;2083866;28;19909;-38
2022/01/19 00:41:44;;;;;;;;;;;;;;;18.23;42.90;101474.50;2083145;28;19912;-38
2022/01/19 00:42:45;;;;;;;;;;;;;;;18.25;43.25;101472.53;2080916;28;20294;-38
2022/01/19 00:43:46;;;;;;;;;;;;;;;18.22;43.09;101461.81;2082690;28;19916;-38
2022/01/19 00:44:46;;;;;;;;;;;;;;;18.23;43.18;101468.13;2079184;28;19917;-38
2022/01/19 00:45:47;;;;;;;;;;;;;;;18.21;43.08;101460.06;2081171;28;19939;-38
2022/01/19 00:46:47;;;;;;;;;;;;;;;18.20;43.22;101458.31;2084992;28;19905;-38
2022/01/19 00:47:48;;;;;;;;;;;;;;;18.20;43.34;101458.31;2082235;28;20008;-38
2022/01/19 00:48:48;;;;;;;;;;;;;;;18.20;43.18;101458.31;2079518;28;19924;-38
2022/01/19 00:49:49;;;;;;;;;;;;;;;18.19;43.23;101445.66;2082262;28;20592;-38
2022/01/19 00:50:50;;;;;;;;;;;;;;;18.19;43.08;101454.72;2084168;28;19974;-38
2022/01/19 00:51:51;;;;;;;;;;;;;;;18.18;43.17;101447.53;2083204;28;20372;-38
2022/01/19 00:52:52;;;;;;;;;;;;;;;18.18;43.37;101443.94;2073798;28;20036;-38
2022/01/19 00:53:52;;;;;;;;;;;;;;;18.18;43.32;101441.19;2081301;28;20209;-38
2022/01/19 00:54:52;;;;;;;;;;;;;;;18.18;43.36;101438.47;2082493;28;20142;-38
2022/01/19 00:55:53;;;;;;;;;;;;;;;18.17;43.32;101433.97;2079772;28;20216;-38
2022/01/19 00:56:53;;;;;;;;;;;;;;;18.19;43.02;101442.94;2079169;28;20390;-38
2022/01/19 00:57:54;;;;;;;;;;;;;;;18.19;43.12;101440.22;2083128;28;19925;-38
2022/01/19 00:58:55;;;;;;;;;;;;;;;18.17;43.17;101436.72;2084747;28;20439;-38
2022/01/19 00:59:55;;;;;;;;;;;;;;;18.15;43.29;101442.31;2083951;28;19913;-38
2022/01/19 01:00:55;;;;;;;;;;;;;;;18.17;43.31;101450.34;2080537;28;20402;-38
2022/01/19 01:01:56;;;;;;;;;;;;;;;18.16;43.28;101459.53;2079695;28;20374;-38
2022/01/19 01:02:56;;;;;;;;;;;;;;;18.16;43.08;101459.53;2083429;28;19928;-38
2022/01/19 01:03:57;;;;;;;;;;;;;;;18.15;43.30;101461.41;2083917;28;19970;-38
2022/01/19 01:04:57;;;;;;;;;;;;;;;18.15;43.36;101465.97;2078132;28;19931;-38
2022/01/19 01:05:57;;;;;;;;;;;;;;;18.14;43.13;101464.22;2082331;28;20398;-38
2022/01/19 01:06:58;;;;;;;;;;;;;;;18.13;43.33;101468.81;2084536;28;19924;-38
2022/01/19 01:07:58;;;;;;;;;;;;;;;18.12;43.36;101468.91;2083308;28;19931;-38
2022/01/19 01:08:59;;;;;;;;;;;;;;;18.12;43.24;101477.09;2083573;28;19924;-38
2022/01/19 01:10:00;;;;;;;;;;;;;;;18.12;43.42;101471.66;2081045;28;20411;-38
2022/01/19 01:11:00;;;;;;;;;;;;;;;18.12;43.31;101477.09;2082371;28;20345;-38
2022/01/19 01:12:28;;;;;;;;;;;;;;;18.11;43.23;101469.91;2082956;28;20230;-38
2022/01/19 01:13:28;;;;;;;;;;;;;;;18.11;43.36;101472.66;2082021;28;19978;-38
2022/01/19 01:16:38;;;;;;;;;;;;;;;18.11;43.21;101473.50;2085150;28;19928;-39
2022/01/19 01:17:14;;;;;;;;;;;;;;;18.10;43.15;101474.47;2073362;28;20521;-38
2022/01/19 01:18:19;;;;;;;;;;;;;;;18.08;43.50;101465.56;2083215;28;20292;-38
2022/01/19 01:19:20;;;;;;;;;;;;;;;18.07;43.36;101469.25;2086352;28;19924;-38
2022/01/19 01:20:20;;;;;;;;;;;;;;;18.09;43.34;101469.16;2082924;28;19927;-38
2022/01/19 01:21:20;;;;;;;;;;;;;;;18.08;43.30;101464.66;2083463;28;19943;-38
2022/01/19 01:22:21;;;;;;;;;;;;;;;18.08;43.47;101470.13;2082265;28;19920;-38
2022/01/19 01:23:22;;;;;;;;;;;;;;;18.08;43.36;101464.66;2083839;28;20334;-38
2022/01/19 01:24:22;;;;;;;;;;;;;;;18.07;43.39;101463.78;2080758;28;19967;-38
2022/01/19 01:25:23;;;;;;;;;;;;;;;18.06;43.49;101464.78;2083771;28;19920;-38
2022/01/19 01:26:23;;;;;;;;;;;;;;;18.07;43.53;101460.19;2084580;28;19921;-38
2022/01/19 01:27:23;;;;;;;;;;;;;;;18.06;43.53;101456.59;2084211;28;19917;-38
2022/01/19 01:28:24;;;;;;;;;;;;;;;18.04;43.38;101453.09;2084837;28;19921;-38
2022/01/19 01:29:25;;;;;;;;;;;;;;;18.04;43.63;101460.44;2080384;28;20294;-38
2022/01/19 01:30:25;;;;;;;;;;;;;;;18.03;43.46;101455.94;2080824;28;19921;-38
2022/01/19 01:31:25;;;;;;;;;;;;;;;18.03;43.57;101458.66;2086018;28;20338;-38
2022/01/19 01:32:25;;;;;;;;;;;;;;;18.03;43.54;101455.94;2083941;28;20042;-38
2022/01/19 01:33:26;;;;;;;;;;;;;;;18.02;43.39;101457.78;2083997;28;20158;-38
2022/01/19 01:34:26;;;;;;;;;;;;;;;18.02;43.57;101448.75;2084572;28;20487;-38
2022/01/19 01:35:26;;;;;;;;;;;;;;;18.02;43.56;101454.19;2083746;28;19920;-38
2022/01/19 01:36:27;;;;;;;;;;;;;;;18.02;43.57;101454.19;2084562;28;19924;-38
2022/01/19 01:37:27;;;;;;;;;;;;;;;18.03;43.56;101458.66;2082190;28;19985;-38
2022/01/19 01:38:27;;;;;;;;;;;;;;;18.00;43.42;101448.84;2082709;28;19955;-38
2022/01/19 01:39:28;;;;;;;;;;;;;;;18.00;43.59;101451.56;2084585;28;19922;-38
2022/01/19 01:40:31;;;;;;;;;;;;;;;18.00;43.53;101457.03;2083582;28;19986;-38
2022/01/19 01:41:31;;;;;;;;;;;;;;;18.00;43.56;101449.72;2082038;28;19924;-38
2022/01/19 01:42:32;;;;;;;;;;;;;;;18.00;43.74;101435.19;2082713;28;19991;-38
2022/01/19 01:43:32;;;;;;;;;;;;;;;17.99;43.53;101442.50;2081196;28;20118;-38
2022/01/19 01:44:37;;;;;;;;;;;;;;;17.98;43.76;101440.78;2080003;28;19947;-38
2022/01/19 01:45:41;;;;;;;;;;;;;;;17.98;43.57;101442.63;2079380;28;19955;-38
2022/01/19 01:46:46;;;;;;;;;;;;;;;17.97;43.80;101446.34;2078919;28;20151;-38
2022/01/19 01:47:52;;;;;;;;;;;;;;;17.95;43.53;101443.72;2084328;28;19920;-38
2022/01/19 01:48:52;;;;;;;;;;;;;;;17.95;43.72;101430.06;2076842;28;20340;-38
2022/01/19 01:53:34;;;;;;;;;;;;;;;17.92;43.55;101427.56;2084154;28;20409;-39
2022/01/19 01:54:34;;;;;;;;;;;;;;;17.92;43.66;101421.25;2083996;28;20314;-38
2022/01/19 01:55:35;;;;;;;;;;;;;;;17.92;43.53;101427.56;2080607;28;19964;-38
2022/01/19 01:56:35;;;;;;;;;;;;;;;17.92;43.77;101427.56;2083959;28;19931;-38
2022/01/19 01:57:35;;;;;;;;;;;;;;;17.91;43.85;101420.38;2083944;28;20264;-38
2022/01/19 01:58:37;;;;;;;;;;;;;;;17.91;43.81;101419.50;2080469;28;20238;-38
2022/01/19 01:59:37;;;;;;;;;;;;;;;17.91;43.59;101416.78;2083315;28;19921;-38
2022/01/19 02:00:37;;;;;;;;;;;;;;;17.89;43.65;101416.88;2079647;28;19923;-38
2022/01/19 02:01:40;;;;;;;;;;;;;;;17.91;43.87;101414.94;2084685;28;20318;-38
2022/01/19 02:02:41;;;;;;;;;;;;;;;17.90;43.67;101412.28;2080830;28;19929;-38
2022/01/19 02:03:42;;;;;;;;;;;;;;;17.90;43.74;101413.16;2081712;28;20286;-38
2022/01/19 02:04:42;;;;;;;;;;;;;;;17.89;43.64;101405.97;2082335;28;19921;-38
2022/01/19 02:06:07;;;;;;;;;;;;;;;17.89;43.65;101414.16;2085545;28;19921;-38
2022/01/19 02:08:36;;;;;;;;;;;;;;;17.87;43.73;101402.47;2083431;28;19951;-38
2022/01/19 02:09:39;;;;;;;;;;;;;;;17.87;43.81;101396.16;2083000;28;19923;-38
2022/01/19 02:10:57;;;;;;;;;;;;;;;17.85;43.75;101395.41;2082238;28;19974;-38
2022/01/19 02:22:42;;;;;;;;;;;;;;;17.82;43.85;101407.41;2085293;28;20337;-38
2022/01/19 02:23:51;;;;;;;;;;;;;;;17.82;43.87;101409.25;2084103;28;19920;-38
2022/01/19 02:24:51;;;;;;;;;;;;;;;17.80;44.03;101406.63;2084815;28;19960;-38
2022/01/19 02:25:53;;;;;;;;;;;;;;;17.80;43.72;101406.63;2085163;28;19966;-38
2022/01/19 02:27:03;;;;;;;;;;;;;;;17.80;43.75;101406.63;2085869;28;19951;-38
2022/01/19 02:36:54;;;;;;;;;;;;;;;17.74;44.05;101404.31;2082438;28;19924;-38
2022/01/19 02:40:33;;;;;;;;;;;;;;;17.73;44.00;101394.38;2084602;28;21031;-38
2022/01/19 02:41:36;;;;;;;;;;;;;;;17.72;43.95;101398.09;2083360;28;19920;-38
2022/01/19 02:42:41;;;;;;;;;;;;;;;17.73;43.89;101397.09;2084271;28;19927;-38
2022/01/19 02:43:46;;;;;;;;;;;;;;;17.72;44.09;101398.97;2083752;28;19920;-38
2022/01/19 02:49:37;;;;;;;;;;;;;;;17.70;44.13;101394.59;2079009;28;19921;-38
2022/01/19 02:50:37;;;;;;;;;;;;;;;17.69;44.19;101401.06;2083272;28;19912;-38
2022/01/19 02:51:38;;;;;;;;;;;;;;;17.68;44.06;101397.44;2078955;28;19913;-38
2022/01/19 02:52:38;;;;;;;;;;;;;;;17.68;44.03;101393.84;2086166;28;20003;-38
2022/01/19 02:53:39;;;;;;;;;;;;;;;17.67;44.14;101397.56;2086723;28;20215;-38
2022/01/19 02:54:39;;;;;;;;;;;;;;;17.66;44.04;101395.78;2081595;28;19928;-38
2022/01/19 02:55:40;;;;;;;;;;;;;;;17.66;44.11;101393.06;2083913;28;19931;-38
2022/01/19 02:56:43;;;;;;;;;;;;;;;17.65;44.28;101389.47;2084943;28;19932;-38
2022/01/19 02:57:46;;;;;;;;;;;;;;;17.63;44.07;101387.84;2079971;28;20145;-38
2022/01/19 02:58:50;;;;;;;;;;;;;;;17.65;44.32;101391.34;2083957;28;19927;-39
2022/01/19 03:06:31;;;;;;;;;;;;;;;17.63;44.26;101391.44;2082539;28;20031;-38
2022/01/19 03:09:06;;;;;;;;;;;;;;;17.61;44.11;101382.47;2084044;28;19921;-38
2022/01/19 03:10:06;;;;;;;;;;;;;;;17.61;44.26;101387.06;2085243;28;20346;-38
2022/01/19 03:11:07;;;;;;;;;;;;;;;17.60;44.21;101383.47;2082630;28;20062;-38
2022/01/19 03:12:07;;;;;;;;;;;;;;;17.58;44.39;101386.31;2076968;28;19936;-38
2022/01/19 03:13:08;;;;;;;;;;;;;;;17.58;44.23;101380.84;2083592;28;19960;-38
2022/01/19 03:14:08;;;;;;;;;;;;;;;17.57;44.28;101384.56;2084437;28;20301;-38
2022/01/19 03:15:10;;;;;;;;;;;;;;;17.57;44.44;101384.56;2083553;28;19928;-38
2022/01/19 03:16:10;;;;;;;;;;;;;;;17.57;44.49;101378.25;2084227;28;19986;-38
2022/01/19 03:17:12;;;;;;;;;;;;;;;17.55;44.31;101375.63;2083061;28;19939;-39
2022/01/19 03:18:12;;;;;;;;;;;;;;;17.55;44.45;101375.63;2078737;28;19927;-38
2022/01/19 03:19:12;;;;;;;;;;;;;;;17.55;44.31;101378.34;2080991;28;20020;-38
2022/01/19 03:20:13;;;;;;;;;;;;;;;17.55;44.28;101375.63;2083756;28;19920;-38
2022/01/19 03:21:14;;;;;;;;;;;;;;;17.54;44.24;101368.44;2086729;28;20034;-38
2022/01/19 03:22:18;;;;;;;;;;;;;;;17.53;44.40;101350.31;2077776;28;20303;-38
2022/01/19 03:23:21;;;;;;;;;;;;;;;17.56;44.39;101363.75;2084805;28;19928;-38
2022/01/19 03:24:21;;;;;;;;;;;;;;;17.55;44.41;101363.84;2084587;28;20010;-38
2022/01/19 03:25:22;;;;;;;;;;;;;;;17.53;44.45;101361.22;2084133;28;19920;-38
2022/01/19 03:26:22;;;;;;;;;;;;;;;17.54;44.35;101357.53;2078812;28;19967;-38
2022/01/19 03:27:23;;;;;;;;;;;;;;;17.53;44.44;101361.22;2080277;28;19967;-38
2022/01/19 03:28:23;;;;;;;;;;;;;;;17.54;44.35;101357.53;2081693;28;19921;-38
2022/01/19 03:29:23;;;;;;;;;;;;;;;17.54;44.49;101362.97;2082263;28;20211;-38
2022/01/19 03:30:23;;;;;;;;;;;;;;;17.54;44.32;101357.53;2079455;28;20251;-38
2022/01/19 03:31:24;;;;;;;;;;;;;;;17.53;44.56;101361.22;2082898;28;20281;-39
2022/01/19 03:32:25;;;;;;;;;;;;;;;17.53;44.27;101361.22;2084647;28;20209;-38
2022/01/19 03:33:25;;;;;;;;;;;;;;;17.52;44.36;101359.50;2084859;28;19927;-38
2022/01/19 03:34:26;;;;;;;;;;;;;;;17.52;44.44;101364.06;2082489;28;20295;-38
2022/01/19 03:35:27;;;;;;;;;;;;;;;17.51;44.30;101363.19;2083093;28;19924;-38
2022/01/19 03:36:27;;;;;;;;;;;;;;;17.52;44.38;101367.66;2079189;28;19975;-38
2022/01/19 03:37:28;;;;;;;;;;;;;;;17.50;44.17;101369.63;2085010;28;19924;-38
2022/01/19 03:38:28;;;;;;;;;;;;;;;17.47;44.39;101358.94;2081611;28;19963;-38
2022/01/19 03:39:29;;;;;;;;;;;;;;;17.50;44.33;101372.34;2077408;28;19921;-38
2022/01/19 03:40:29;;;;;;;;;;;;;;;17.49;44.35;101369.72;2091031;28;19916;-38
2022/01/19 03:41:29;;;;;;;;;;;;;;;17.48;44.58;101368.84;2089330;28;19931;-41
2022/01/19 03:42:30;;;;;;;;;;;;;;;17.48;44.44;101378.91;2080339;28;20302;-38
2022/01/19 03:43:30;;;;;;;;;;;;;;;17.47;44.54;101372.56;2082016;28;19950;-38
2022/01/19 03:44:31;;;;;;;;;;;;;;;17.46;44.46;101370.81;2085111;28;20321;-38
2022/01/19 03:45:33;;;;;;;;;;;;;;;17.46;44.38;101370.81;2084107;28;19924;-38
2022/01/19 03:46:34;;;;;;;;;;;;;;;17.46;44.40;101365.38;2083194;28;19917;-38
2022/01/19 03:48:09;;;;;;;;;;;;;;;17.45;44.43;101363.63;2084487;28;19921;-38
2022/01/19 03:48:58;;;;;;;;;;;;;;;17.46;44.53;101369.94;2084965;28;19917;-38
2022/01/19 03:49:58;;;;;;;;;;;;;;;17.45;44.30;101374.53;2085035;28;20239;-38
2022/01/19 03:50:59;;;;;;;;;;;;;;;17.45;44.37;101373.66;2085018;28;19920;-38
2022/01/19 03:52:02;;;;;;;;;;;;;;;17.45;44.43;101379.97;2085421;28;20444;-38
2022/01/19 03:53:02;;;;;;;;;;;;;;;17.45;44.42;101384.56;2084251;28;19948;-38
2022/01/19 03:54:02;;;;;;;;;;;;;;;17.45;44.57;101390.03;2084606;28;19912;-38
2022/01/19 03:55:03;;;;;;;;;;;;;;;17.45;44.56;101385.44;2084772;28;19912;-38
2022/01/19 03:56:04;;;;;;;;;;;;;;;17.44;44.34;101382.81;2083713;28;20354;-38
2022/01/19 03:57:04;;;;;;;;;;;;;;;17.42;44.54;101371.13;2085027;28;19916;-38
2022/01/19 03:58:05;;;;;;;;;;;;;;;17.43;44.58;101371.03;2083575;28;20383;-38
2022/01/19 03:59:05;;;;;;;;;;;;;;;17.40;44.35;101365.81;2084874;28;19908;-38
2022/01/19 04:00:06;;;;;;;;;;;;;;;17.42;44.61;101373.84;2083449;28;19919;-38
2022/01/19 04:01:08;;;;;;;;;;;;;;;17.41;44.44;101374.84;2082658;28;19921;-38
2022/01/19 04:02:08;;;;;;;;;;;;;;;17.40;44.52;101370.41;2079484;28;19935;-38
2022/01/19 04:03:12;;;;;;;;;;;;;;;17.40;44.46;101371.25;2082278;28;19940;-38
2022/01/19 04:05:38;;;;;;;;;;;;;;;17.38;44.55;101367.78;2080938;28;19950;-38
2022/01/19 04:06:59;;;;;;;;;;;;;;;17.40;44.70;101375.84;2084629;28;20090;-38
2022/01/19 04:07:59;;;;;;;;;;;;;;;17.37;44.67;101379.66;2083528;28;19996;-38
2022/01/19 04:08:59;;;;;;;;;;;;;;;17.38;44.47;101373.22;2083505;28;19928;-38
2022/01/19 04:09:59;;;;;;;;;;;;;;;17.38;44.76;101377.81;2084979;28;19954;-38
2022/01/19 04:11:00;;;;;;;;;;;;;;;17.36;44.75;101377.91;2084047;28;20632;-38
2022/01/19 04:12:00;;;;;;;;;;;;;;;17.38;44.42;101378.66;2084717;28;20555;-38
2022/01/19 04:14:30;;;;;;;;;;;;;;;17.38;44.37;101384.13;2079346;28;19962;-38
2022/01/19 04:15:30;;;;;;;;;;;;;;;17.36;44.56;101378.75;2084834;28;20372;-38
2022/01/19 04:16:31;;;;;;;;;;;;;;;17.36;44.79;101380.63;2084291;28;19944;-38
2022/01/19 04:17:32;;;;;;;;;;;;;;;17.35;44.67;101373.44;2084320;28;20007;-38
2022/01/19 04:18:32;;;;;;;;;;;;;;;17.34;44.72;101374.41;2083726;28;19928;-38
2022/01/19 04:19:41;;;;;;;;;;;;;;;17.34;44.63;101377.13;2081642;28;19923;-38
2022/01/19 04:20:43;;;;;;;;;;;;;;;17.34;44.96;101382.59;2084280;28;20322;-38
2022/01/19 04:21:44;;;;;;;;;;;;;;;17.31;44.94;101383.66;2084003;28;19916;-38
2022/01/19 04:22:44;;;;;;;;;;;;;;;17.32;44.69;101373.63;2080540;28;20104;-38
2022/01/19 04:23:45;;;;;;;;;;;;;;;17.31;44.85;101382.81;2081413;28;20666;-38
2022/01/19 04:24:46;;;;;;;;;;;;;;;17.33;44.88;101383.56;2084012;28;20302;-40
2022/01/19 04:25:46;;;;;;;;;;;;;;;17.35;44.81;101384.34;2084099;28;20227;-38
2022/01/19 04:26:58;;;;;;;;;;;;;;;17.36;44.83;101380.63;2083130;28;19916;-39
2022/01/19 04:27:58;;;;;;;;;;;;;;;17.36;44.60;101380.63;2083717;28;19924;-39
2022/01/19 04:28:59;;;;;;;;;;;;;;;17.38;44.59;101389.56;2084320;28;20145;-38
2022/01/19 04:30:11;;;;;;;;;;;;;;;17.40;44.50;101387.63;2084160;28;19924;-39
2022/01/19 04:31:11;;;;;;;;;;;;;;;17.40;44.55;101393.06;2081331;28;20300;-38
2022/01/19 04:32:17;;;;;;;;;;;;;;;17.39;44.36;101380.41;2084975;28;19931;-38
2022/01/19 04:33:22;;;;;;;;;;;;;;;17.39;44.33;101380.41;2084702;28;19927;-38
2022/01/19 04:34:23;;;;;;;;;;;;;;;17.39;44.40;101390.44;2084532;28;19927;-38
2022/01/19 04:35:26;;;;;;;;;;;;;;;17.38;44.50;101395.03;2083164;28;19932;-38
2022/01/19 04:37:38;;;;;;;;;;;;;;;17.38;44.21;101403.19;2084257;28;20373;-38
2022/01/19 04:39:17;;;;;;;;;;;;;;;17.37;44.37;101390.56;2084834;28;19923;-39
2022/01/19 04:44:36;;;;;;;;;;;;;;;17.34;44.12;101390.75;2080843;28;20242;-38
2022/01/19 05:04:33;;;;;;;;;;;;;;;17.42;43.70;101391.13;2083190;28;19924;-38
2022/01/19 05:05:45;;;;;;;;;;;;;;;17.42;43.74;101391.13;2083150;28;19920;-38
2022/01/19 05:06:50;;;;;;;;;;;;;;;17.43;43.77;101395.56;2081892;28;20124;-38
2022/01/19 05:13:52;;;;;;;;;;;;;;;17.44;43.66;101396.44;2084829;28;19920;-38
2022/01/19 05:14:52;;;;;;;;;;;;;;;17.44;43.51;101400.06;2079087;28;20310;-42
2022/01/19 05:15:53;;;;;;;;;;;;;;;17.44;43.34;101399.16;2082361;28;19921;-38
2022/01/19 05:16:54;;;;;;;;;;;;;;;17.45;43.61;101400.94;2084500;28;19924;-38
2022/01/19 05:17:54;;;;;;;;;;;;;;;17.45;43.38;101401.78;2083431;28;19921;-38
2022/01/19 05:18:55;;;;;;;;;;;;;;;17.45;43.49;101401.78;2084341;28;20024;-43
2022/01/19 05:19:55;;;;;;;;;;;;;;;17.47;43.38;101398.97;2083243;28;19920;-39
2022/01/19 05:20:56;;;;;;;;;;;;;;;17.46;43.49;101403.53;2082064;28;19920;-38
2022/01/19 05:21:56;;;;;;;;;;;;;;;17.47;43.49;101401.69;2083695;28;19951;-38
2022/01/19 05:22:56;;;;;;;;;;;;;;;17.47;43.62;101410.75;2082227;28;19969;-39
2022/01/19 05:24:03;;;;;;;;;;;;;;;17.48;43.47;101406.16;2084603;28;19922;-38
2022/01/19 05:25:03;;;;;;;;;;;;;;;17.48;43.39;101397.97;2079421;28;19939;-38
2022/01/19 05:26:04;;;;;;;;;;;;;;;17.47;43.49;101399.84;2082829;28;20445;-39
2022/01/19 05:27:04;;;;;;;;;;;;;;;17.48;43.35;101400.72;2084287;28;19920;-38
2022/01/19 05:28:04;;;;;;;;;;;;;;;17.47;43.33;101402.56;2079564;28;20384;-38
2022/01/19 05:29:05;;;;;;;;;;;;;;;17.47;43.28;101399.84;2080515;28;20286;-38
2022/01/19 05:30:05;;;;;;;;;;;;;;;17.47;43.52;101402.56;2083317;28;19970;-38
2022/01/19 05:31:06;;;;;;;;;;;;;;;17.48;43.51;101401.56;2083435;28;19951;-38
2022/01/19 05:32:06;;;;;;;;;;;;;;;17.48;43.28;101396.13;2083585;28;20022;-38
2022/01/19 05:33:07;;;;;;;;;;;;;;;17.47;43.49;101397.13;2082985;28;19920;-38
2022/01/19 05:34:07;;;;;;;;;;;;;;;17.49;43.45;101402.44;2083568;28;19960;-38
2022/01/19 05:35:07;;;;;;;;;;;;;;;17.49;43.31;101392.44;2083427;28;19924;-38
2022/01/19 05:36:08;;;;;;;;;;;;;;;17.51;43.45;101398.63;2081381;28;19923;-39
2022/01/19 05:37:08;;;;;;;;;;;;;;;17.52;43.20;101397.66;2080463;28;20298;-38
2022/01/19 05:38:08;;;;;;;;;;;;;;;17.53;43.27;101399.38;2082029;28;20438;-38
2022/01/19 05:39:09;;;;;;;;;;;;;;;17.53;43.29;101399.38;2083729;28;19924;-38
2022/01/19 05:40:10;;;;;;;;;;;;;;;17.54;43.06;101398.44;2081247;28;19908;-39
2022/01/19 05:41:11;;;;;;;;;;;;;;;17.55;43.02;101394.72;2084662;28;20794;-38
2022/01/19 05:42:15;;;;;;;;;;;;;;;17.56;43.13;101396.47;2077131;28;19921;-38
2022/01/19 05:43:15;;;;;;;;;;;;;;;17.57;43.00;101390.03;2079554;28;19960;-38
2022/01/19 05:44:15;;;;;;;;;;;;;;;17.57;43.11;101389.16;2082784;28;20298;-38
2022/01/19 05:45:16;;;;;;;;;;;;;;;17.60;43.10;101409.88;2078685;28;20215;-38
2022/01/19 05:46:16;;;;;;;;;;;;;;;17.62;42.96;101405.19;2081057;28;19924;-38
2022/01/19 05:47:17;;;;;;;;;;;;;;;17.61;42.75;101404.28;2078654;28;20003;-38
2022/01/19 05:48:17;;;;;;;;;;;;;;;17.64;42.94;101395.03;2081772;28;20018;-38
2022/01/19 05:49:17;;;;;;;;;;;;;;;17.66;43.09;101398.53;2080398;28;19916;-38
2022/01/19 05:50:18;;;;;;;;;;;;;;;17.67;42.96;101386.66;2083853;28;19920;-38
2022/01/19 05:51:18;;;;;;;;;;;;;;;17.67;42.77;101394.84;2080649;28;19917;-38
2022/01/19 05:52:19;;;;;;;;;;;;;;;17.69;42.66;101398.31;2081697;28;19927;-38
2022/01/19 05:53:20;;;;;;;;;;;;;;;17.69;42.73;101398.31;2084422;28;19955;-39
2022/01/19 05:54:20;;;;;;;;;;;;;;;17.68;42.87;101416.53;2083732;28;19924;-38
2022/01/19 05:55:21;;;;;;;;;;;;;;;17.70;42.73;101419.16;2084641;28;19920;-38
2022/01/19 05:56:21;;;;;;;;;;;;;;;17.70;42.69;101421.88;2084665;28;19947;-38
2022/01/19 05:57:22;;;;;;;;;;;;;;;17.70;42.82;101417.28;2084113;28;19932;-40
2022/01/19 05:58:22;;;;;;;;;;;;;;;17.70;42.90;101417.28;2085780;28;19924;-38
2022/01/19 05:59:23;;;;;;;;;;;;;;;17.70;42.57;101419.16;2084536;28;20334;-38
2022/01/19 06:00:23;;;;;;;;;;;;;;;17.70;42.66;101411.84;2085324;28;19968;-38
2022/01/19 06:01:23;;;;;;;;;;;;;;;17.70;42.90;101410.97;2084641;28;20231;-38
2022/01/19 06:02:24;;;;;;;;;;;;;;;17.70;42.56;101416.41;2085427;28;19962;-38
2022/01/19 06:03:25;;;;;;;;;;;;;;;17.69;42.88;101417.41;2085770;28;20298;-38
2022/01/19 06:04:25;;;;;;;;;;;;;;;17.69;42.59;101415.56;2083098;28;20411;-38
2022/01/19 06:05:25;;;;;;;;;;;;;;;17.70;42.65;101414.56;2086442;28;20292;-38
2022/01/19 06:06:26;;;;;;;;;;;;;;;17.70;42.79;101410.97;2085837;28;19920;-38
2022/01/19 06:07:29;;;;;;;;;;;;;;;17.69;42.57;101409.22;2080879;28;19977;-38
2022/01/19 06:08:40;;;;;;;;;;;;;;;17.68;42.76;101413.78;2077728;28;20003;-38
2022/01/19 06:10:44;;;;;;;;;;;;;;;17.69;42.75;101414.69;2085343;28;20250;-38
2022/01/19 06:11:45;;;;;;;;;;;;;;;17.68;42.58;101413.78;2084991;28;20578;-38
2022/01/19 06:12:45;;;;;;;;;;;;;;;17.69;42.81;101409.22;2082922;28;20345;-38
2022/01/19 06:13:45;;;;;;;;;;;;;;;17.67;42.72;101406.59;2084240;28;20556;-38
2022/01/19 06:14:46;;;;;;;;;;;;;;;17.68;42.80;101418.38;2085948;28;19916;-38
2022/01/19 06:15:46;;;;;;;;;;;;;;;17.67;42.68;101412.06;2083596;28;19912;-38
2022/01/19 06:16:46;;;;;;;;;;;;;;;17.68;42.74;101410.19;2079371;28;19928;-38
2022/01/19 06:17:47;;;;;;;;;;;;;;;17.68;42.63;101410.19;2083900;28;19919;-38
2022/01/19 06:18:47;;;;;;;;;;;;;;;17.67;42.59;101394.84;2085488;28;19920;-38
2022/01/19 06:19:48;;;;;;;;;;;;;;;17.67;42.61;101400.28;2083526;28;19923;-39
2022/01/19 06:20:48;;;;;;;;;;;;;;;17.67;42.57;101401.16;2079643;28;19948;-39
2022/01/19 06:21:49;;;;;;;;;;;;;;;17.64;42.57;101405.94;2083555;28;19923;-39
2022/01/19 06:22:49;;;;;;;;;;;;;;;17.64;42.74;101403.22;2083627;28;19943;-39
2022/01/19 06:23:49;;;;;;;;;;;;;;;17.63;42.76;101409.66;2084169;28;20294;-45
2022/01/19 06:24:50;;;;;;;;;;;;;;;17.62;42.47;101405.19;2081113;28;19925;-38
2022/01/19 06:25:51;;;;;;;;;;;;;;;17.63;42.76;101407.78;2079240;28;19948;-39
2022/01/19 06:26:51;;;;;;;;;;;;;;;17.62;42.75;101407.91;2086290;28;19920;-39
2022/01/19 06:27:51;;;;;;;;;;;;;;;17.63;42.60;101409.66;2081569;28;19920;-38
2022/01/19 06:28:52;;;;;;;;;;;;;;;17.63;42.80;101409.66;2086837;28;20319;-38
2022/01/19 06:29:52;;;;;;;;;;;;;;;17.63;42.66;101404.19;2084292;28;19962;-39
2022/01/19 06:30:52;;;;;;;;;;;;;;;17.64;42.67;101405.94;2085068;28;20326;-39
2022/01/19 06:31:53;;;;;;;;;;;;;;;17.65;42.61;101411.28;2089158;28;19924;-39